Map

Track Data

SID SEASON NUMBER BASIN SUBBASIN NAME ISO_TIME NATURE LAT LON WMO_WIND WMO_PRES WMO_AGENCY TRACK_TYPE DIST2LAND LANDFALL IFLAG USA_AGENCY USA_ATCF_ID USA_LAT USA_LON USA_RECORD USA_STATUS USA_WIND USA_PRES USA_SSHS USA_R34_NE USA_R34_SE USA_R34_SW USA_R34_NW USA_R50_NE USA_R50_SE USA_R50_SW USA_R50_NW USA_R64_NE USA_R64_SE USA_R64_SW USA_R64_NW USA_POCI USA_ROCI USA_RMW USA_EYE TOKYO_LAT TOKYO_LON TOKYO_GRADE TOKYO_WIND TOKYO_PRES TOKYO_R50_DIR TOKYO_R50_LONG TOKYO_R50_SHORT TOKYO_R30_DIR TOKYO_R30_LONG TOKYO_R30_SHORT TOKYO_LAND CMA_LAT CMA_LON CMA_CAT CMA_WIND CMA_PRES HKO_LAT HKO_LON HKO_CAT HKO_WIND HKO_PRES NEWDELHI_LAT NEWDELHI_LON NEWDELHI_GRADE NEWDELHI_WIND NEWDELHI_PRES NEWDELHI_CI NEWDELHI_DP NEWDELHI_POCI REUNION_LAT REUNION_LON REUNION_TYPE REUNION_WIND REUNION_PRES REUNION_TNUM REUNION_CI REUNION_RMW REUNION_R34_NE REUNION_R34_SE REUNION_R34_SW REUNION_R34_NW REUNION_R50_NE REUNION_R50_SE REUNION_R50_SW REUNION_R50_NW REUNION_R64_NE REUNION_R64_SE REUNION_R64_SW REUNION_R64_NW BOM_LAT BOM_LON BOM_TYPE BOM_WIND BOM_PRES BOM_TNUM BOM_CI BOM_RMW BOM_R34_NE BOM_R34_SE BOM_R34_SW BOM_R34_NW BOM_R50_NE BOM_R50_SE BOM_R50_SW BOM_R50_NW BOM_R64_NE BOM_R64_SE BOM_R64_SW BOM_R64_NW BOM_ROCI BOM_POCI BOM_EYE BOM_POS_METHOD BOM_PRES_METHOD NADI_LAT NADI_LON NADI_CAT NADI_WIND NADI_PRES WELLINGTON_LAT WELLINGTON_LON WELLINGTON_WIND WELLINGTON_PRES DS824_LAT DS824_LON DS824_STAGE DS824_WIND DS824_PRES TD9636_LAT TD9636_LON TD9636_STAGE TD9636_WIND TD9636_PRES TD9635_LAT TD9635_LON TD9635_WIND TD9635_PRES TD9635_ROCI NEUMANN_LAT NEUMANN_LON NEUMANN_CLASS NEUMANN_WIND NEUMANN_PRES MLC_LAT MLC_LON MLC_CLASS MLC_WIND MLC_PRES USA_GUST BOM_GUST BOM_GUST_PER REUNION_GUST REUNION_GUST_PER USA_SEAHGT USA_SEARAD_NE USA_SEARAD_SE USA_SEARAD_SW USA_SEARAD_NW STORM_SPEED STORM_DIR
1949261N11116 1949 78 WP MM NOT_NAMED 1949-09-17 18:00:00 TS 11.2000 115.500 main 336 336 __O___________ -1 11.2000 115.500 0 1003 3 300
1949261N11116 1949 78 WP MM NOT_NAMED 1949-09-17 21:00:00 TS 11.2850 115.348 main 360 360 __P___________ -1 11.2850 115.348 0 1003 4 304
1949261N11116 1949 78 WP MM NOT_NAMED 1949-09-18 00:00:00 TS 11.4000 115.200 main 375 375 __O___________ -1 11.4000 115.200 0 1003 4 314
1949261N11116 1949 78 WP MM NOT_NAMED 1949-09-18 03:00:00 TS 11.5575 115.058 main 399 399 __P___________ -1 11.5575 115.058 0 1002 4 316
1949261N11116 1949 78 WP MM NOT_NAMED 1949-09-18 06:00:00 TS 11.7000 114.900 main 422 422 __O___________ -1 11.7000 114.900 0 1002 4 300
1949261N11116 1949 78 WP MM NOT_NAMED 1949-09-18 09:00:00 TS 11.7575 114.707 main 446 414 __P___________ -1 11.7575 114.707 0 1001 1 117
1949261N11116 1949 78 WP MM NOT_NAMED 1949-09-18 12:00:00 TS 11.6500 115.000 main 414 407 O_O______OOO__ jtwc_wp WP141949 11.5000 115.500 30 -1 11.8000 114.500 0 1001 11.5000 115.500 TC 30 11.5000 115.500 1 30 11.5000 115.500 30 998 360 2 101
1949261N11116 1949 78 WP MM NOT_NAMED 1949-09-18 15:00:00 TS 11.7260 114.870 main 422 422 P_P______PPP__ WP141949 11.6576 115.143 30 -1 11.8925 114.300 0 999 11.6576 115.143 TC 30 11.5983 115.193 1 30 11.6576 115.143 30 998 360 4 297
1949261N11116 1949 78 WP MM NOT_NAMED 1949-09-18 18:00:00 TS 11.8345 114.638 main 454 454 O_O______OPO__ jtwc_wp WP141949 11.8000 114.800 30 -1 12.0000 114.100 1 23 998 11.8000 114.800 TC 30 11.7172 114.870 1 30 11.8000 114.800 30 998 360 5 294
1949261N11116 1949 78 WP MM NOT_NAMED 1949-09-18 21:00:00 TS 11.9474 114.367 main 477 477 P_P______PPP__ WP141949 11.9274 114.472 30 -1 12.0775 113.907 1 26 998 11.9274 114.472 TC 30 11.8776 114.511 1 30 11.9274 114.472 30 998 360 7 295
1949261N11116 1949 78 WP MM NOT_NAMED 1949-09-19 00:00:00 TS 12.1200 114.020 main 492 445 O_O______OOO__ jtwc_wp WP141949 12.1000 114.100 30 -1 12.2000 113.700 1 29 998 12.1000 114.100 TC 30 12.1000 114.100 1 30 12.1000 114.100 30 999 360 9 299
1949261N11116 1949 78 WP MM NOT_NAMED 1949-09-19 03:00:00 TS 12.3726 113.589 main 445 401 P_P______PPP__ WP141949 12.3476 113.615 30 -1 12.4200 113.472 1 29 996 12.3476 113.615 TC 30 12.4001 113.629 1 30 12.3476 113.615 30 999 360 11 304
1949261N11116 1949 78 WP MM NOT_NAMED 1949-09-19 06:00:00 TS 12.7146 113.126 main 390 347 O_O______OPO__ jtwc_wp WP141949 12.7000 113.100 30 -1 12.7000 113.200 1 29 995 12.7000 113.100 TC 30 12.7732 113.128 1 30 12.7000 113.100 30 999 360 12 310
1949261N11116 1949 78 WP MM NOT_NAMED 1949-09-19 09:00:00 TS 13.1289 112.679 main 347 310 P_P______PPP__ WP141949 13.1549 112.635 30 -1 12.9701 112.850 1 33 995 13.1549 112.635 TC 30 13.2096 112.638 1 30 13.1549 112.635 30 999 360 12 317
1949261N11116 1949 78 WP MM NOT_NAMED 1949-09-19 12:00:00 TS 13.6200 112.260 main 313 280 O_O______OOO__ jtwc_wp WP141949 13.7000 112.200 30 -1 13.3000 112.500 2 38 995 13.7000 112.200 TC 30 13.7000 112.200 1 30 13.7000 112.200 30 999 360 13 323
1949261N11116 1949 78 WP MM NOT_NAMED 1949-09-19 15:00:00 TS 14.1739 111.866 main 282 260 P_P______PPP__ WP141949 14.2925 111.755 35 0 13.7349 112.227 2 43 992 14.2925 111.755 TC 35 14.2568 111.839 1 32 14.2925 111.755 35 997 360 13 329
1949261N11116 1949 78 WP MM NOT_NAMED 1949-09-19 18:00:00 TS 14.7514 111.548 main 257 245 O_O______OPO__ jtwc_wp WP141949 14.9000 111.400 40 0 14.2000 112.000 3 48 990 14.9000 111.400 TC 40 14.8571 111.538 1 35 14.9000 111.400 40 996 360 12 336
1949261N11116 1949 78 WP MM NOT_NAMED 1949-09-19 21:00:00 TS 15.2957 111.340 main 245 245 P_P______PPP__ WP141949 15.4799 111.205 40 0 14.5850 111.792 3 48 990 15.4799 111.205 TC 40 15.4539 111.292 1 37 15.4799 111.205 40 995 360 11 342
1949261N11116 1949 78 WP MM NOT_NAMED 1949-09-20 00:00:00 TS 15.8000 111.200 main 255 252 O_O______OOO__ jtwc_wp WP141949 16.0000 111.100 40 0 15.0000 111.600 3 48 990 16.0000 111.100 TC 40 16.0000 111.100 2 40 16.0000 111.100 40 995 360 10 345
1949261N11116 1949 78 WP MM NOT_NAMED 1949-09-20 03:00:00 TS 16.2594 111.074 main 259 217 P_P______PPP__ WP141949 16.4300 110.992 40 0 15.5425 111.407 3 48 990 16.4300 110.992 TC 40 16.4645 110.985 2 38 16.4300 110.992 40 995 330 9 345
1949261N11116 1949 78 WP MM NOT_NAMED 1949-09-20 06:00:00 TS 16.6739 110.963 main 217 183 O_O______OPO__ jtwc_wp WP141949 16.8000 110.900 40 0 16.1000 111.200 3 48 990 16.8000 110.900 TC 40 16.8693 110.914 2 37 16.8000 110.900 40 995 300 8 346
1949261N11116 1949 78 WP MM NOT_NAMED 1949-09-20 09:00:00 TS 17.0698 110.865 main 173 134 P_P______PPP__ WP141949 17.1799 110.837 37 0 16.5949 110.980 3 48 990 17.1799 110.837 TC 37 17.2145 110.835 2 36 17.1799 110.837 37 995 300 8 341
1949261N11116 1949 78 WP MM NOT_NAMED 1949-09-20 12:00:00 TS 17.4000 110.700 main 134 99 O_O______OOO__ jtwc_wp WP141949 17.5000 110.700 35 0 17.0000 110.700 3 48 990 17.5000 110.700 TC 35 17.5000 110.700 2 35 17.5000 110.700 35 996 300 7 322
1949261N11116 1949 78 WP MM NOT_NAMED 1949-09-20 15:00:00 TS 17.6457 110.387 main 99 54 P_P______PPP__ WP141949 17.7301 110.380 32 -1 17.3100 110.323 3 48 990 17.7301 110.380 TC 32 17.7282 110.470 2 31 17.7301 110.380 32 998 300 8 301
1949261N11116 1949 78 WP MM NOT_NAMED 1949-09-20 18:00:00 TS 17.8021 110.005 main 54 33 O_O______OPO__ jtwc_wp WP141949 17.9000 110.000 30 -1 17.5000 109.900 3 48 990 17.9000 110.000 TC 30 17.9111 110.159 2 27 17.9000 110.000 30 1000 300 8 290
1949261N11116 1949 78 WP MM NOT_NAMED 1949-09-20 21:00:00 TS 17.8967 109.643 main 33 33 P_P______PPP__ WP141949 18.0525 109.678 25 -1 17.5798 109.515 3 48 990 18.0525 109.678 TC 25 18.0635 109.793 2 23 18.0525 109.678 25 1002 300 7 278
1949261N11116 1949 78 WP MM NOT_NAMED 1949-09-21 00:00:00 TS 17.9000 109.250 main 39 39 O_O______OOO__ jtwc_wp WP141949 18.2000 109.400 20 -1 17.6000 109.100 3 48 990 18.2000 109.400 TC 20 18.2000 109.400 1 20 18.2000 109.400 20 1005 300 10 256
1949261N11116 1949 78 WP MM NOT_NAMED 1949-09-21 03:00:00 TS 17.6576 108.600 main 89 89 __P___________ WP141949 -1 17.6576 108.600 3 48 990 TC 1 11 260
1949261N11116 1949 78 WP MM NOT_NAMED 1949-09-21 06:00:00 TS 17.7000 108.100 main 109 92 __O___________ -1 17.7000 108.100 3 48 990 1 9 273
1949261N11116 1949 78 WP MM NOT_NAMED 1949-09-21 09:00:00 TS 17.6998 107.685 main 92 69 __P___________ -1 17.6998 107.685 3 43 992 1 8 270
1949261N11116 1949 78 WP MM NOT_NAMED 1949-09-21 12:00:00 TS 17.7000 107.300 main 69 38 __O___________ -1 17.7000 107.300 2 38 995 8 274
1949261N11116 1949 78 WP MM NOT_NAMED 1949-09-21 15:00:00 TS 17.7500 106.878 main 43 10 __P___________ -1 17.7500 106.878 2 33 997 8 277
1949261N11116 1949 78 WP MM NOT_NAMED 1949-09-21 18:00:00 TS 17.8000 106.500 main 10 0 __O___________ -1 17.8000 106.500 1 29 1000 6 276
1949261N11116 1949 78 WP MM NOT_NAMED 1949-09-21 21:00:00 TS 17.8125 106.220 main 0 0 __P___________ -1 17.8125 106.220 1 24 1001 5 270
1949261N11116 1949 78 WP MM NOT_NAMED 1949-09-22 00:00:00 TS 17.8000 106.000 main 0 __O___________ -1 17.8000 106.000 0 19 1002 4 267

Digital Typhoon Data and Search

About IBTrACS Database

This database is a web-friendly format of International Best Track Archive for Climate Stewardship (IBTrACS), a global best track data archive curated by NOAA dating back to 1842.

Updated: 2021-10-08